sensor_id;sensor_type;location;lat;lon;timestamp;pressure;altitude;pressure_sealevel;temperature;humidity
15694;BME280;7947;48.834;9.132;2023-09-19T00:02:41;97771.53;;;19.21;79.77
15694;BME280;7947;48.834;9.132;2023-09-19T00:05:48;97780.38;;;19.18;79.43
15694;BME280;7947;48.834;9.132;2023-09-19T00:08:52;97779.81;;;19.12;79.99
15694;BME280;7947;48.834;9.132;2023-09-19T00:11:57;97784.22;;;19.17;80.10
15694;BME280;7947;48.834;9.132;2023-09-19T00:15:01;97790.22;;;19.22;79.55
15694;BME280;7947;48.834;9.132;2023-09-19T00:18:07;97799.97;;;19.23;79.22
15694;BME280;7947;48.834;9.132;2023-09-19T00:21:11;97800.69;;;19.32;78.51
15694;BME280;7947;48.834;9.132;2023-09-19T00:24:13;97800.34;;;19.34;78.31
15694;BME280;7947;48.834;9.132;2023-09-19T00:27:20;97801.16;;;19.34;78.17
15694;BME280;7947;48.834;9.132;2023-09-19T00:30:23;97802.28;;;19.33;78.22
15694;BME280;7947;48.834;9.132;2023-09-19T00:33:26;97795.47;;;19.27;78.11
15694;BME280;7947;48.834;9.132;2023-09-19T00:36:31;97803.16;;;19.25;78.21
15694;BME280;7947;48.834;9.132;2023-09-19T00:39:35;97805.44;;;19.23;78.68
15694;BME280;7947;48.834;9.132;2023-09-19T00:42:40;97811.06;;;19.18;78.96
15694;BME280;7947;48.834;9.132;2023-09-19T00:45:46;97809.03;;;19.15;78.99
15694;BME280;7947;48.834;9.132;2023-09-19T00:48:50;97823.09;;;19.17;79.16
15694;BME280;7947;48.834;9.132;2023-09-19T00:51:53;97815.28;;;19.16;78.94
15694;BME280;7947;48.834;9.132;2023-09-19T00:54:56;97819.22;;;19.18;79.29
15694;BME280;7947;48.834;9.132;2023-09-19T00:58:01;97830.66;;;19.12;79.39
15694;BME280;7947;48.834;9.132;2023-09-19T01:01:04;97822.72;;;19.07;79.83
15694;BME280;7947;48.834;9.132;2023-09-19T01:04:09;97833.47;;;19.03;79.85
15694;BME280;7947;48.834;9.132;2023-09-19T01:07:12;97834.63;;;19.02;80.10
15694;BME280;7947;48.834;9.132;2023-09-19T01:10:18;97836.66;;;19.05;79.91
15694;BME280;7947;48.834;9.132;2023-09-19T01:13:30;97832.94;;;19.10;79.82
15694;BME280;7947;48.834;9.132;2023-09-19T01:16:42;97840.09;;;19.14;79.14
15694;BME280;7947;48.834;9.132;2023-09-19T01:20:15;97839.63;;;19.12;79.35
15694;BME280;7947;48.834;9.132;2023-09-19T01:23:23;97844.38;;;19.15;79.22
15694;BME280;7947;48.834;9.132;2023-09-19T01:26:37;97850.97;;;19.14;78.88
15694;BME280;7947;48.834;9.132;2023-09-19T01:29:49;97858.38;;;19.05;78.96
15694;BME280;7947;48.834;9.132;2023-09-19T01:32:54;97850.47;;;19.00;79.27
15694;BME280;7947;48.834;9.132;2023-09-19T01:35:57;97844.03;;;19.05;78.96
15694;BME280;7947;48.834;9.132;2023-09-19T01:39:00;97851.84;;;19.06;79.02
15694;BME280;7947;48.834;9.132;2023-09-19T01:42:12;97858.72;;;19.04;79.43
15694;BME280;7947;48.834;9.132;2023-09-19T01:45:26;97862.13;;;19.01;79.30
15694;BME280;7947;48.834;9.132;2023-09-19T01:48:41;97850.00;;;18.98;79.40
15694;BME280;7947;48.834;9.132;2023-09-19T01:51:51;97851.00;;;18.93;80.13
15694;BME280;7947;48.834;9.132;2023-09-19T01:54:58;97861.41;;;18.91;80.08
15694;BME280;7947;48.834;9.132;2023-09-19T01:58:06;97862.09;;;18.88;80.27
15694;BME280;7947;48.834;9.132;2023-09-19T02:01:11;97864.69;;;18.85;80.53
15694;BME280;7947;48.834;9.132;2023-09-19T02:04:18;97871.44;;;18.79;80.74
15694;BME280;7947;48.834;9.132;2023-09-19T02:07:22;97869.72;;;18.74;81.02
15694;BME280;7947;48.834;9.132;2023-09-19T02:10:25;97872.78;;;18.73;81.06
15694;BME280;7947;48.834;9.132;2023-09-19T02:13:27;97877.88;;;18.74;80.42
15694;BME280;7947;48.834;9.132;2023-09-19T02:16:30;97873.25;;;18.75;80.34
15694;BME280;7947;48.834;9.132;2023-09-19T02:19:35;97866.22;;;18.74;79.94
15694;BME280;7947;48.834;9.132;2023-09-19T02:22:41;97869.94;;;18.69;80.12
15694;BME280;7947;48.834;9.132;2023-09-19T02:25:51;97868.22;;;18.65;80.01
15694;BME280;7947;48.834;9.132;2023-09-19T02:28:54;97883.13;;;18.59;80.37
15694;BME280;7947;48.834;9.132;2023-09-19T02:31:57;97883.00;;;18.55;80.19
15694;BME280;7947;48.834;9.132;2023-09-19T02:35:02;97887.16;;;18.53;80.32
15694;BME280;7947;48.834;9.132;2023-09-19T02:38:06;97887.16;;;18.53;80.33
15694;BME280;7947;48.834;9.132;2023-09-19T02:41:13;97886.22;;;18.49;80.23
15694;BME280;7947;48.834;9.132;2023-09-19T02:44:16;97891.66;;;18.49;80.10
15694;BME280;7947;48.834;9.132;2023-09-19T02:47:21;97902.06;;;18.47;79.99
15694;BME280;7947;48.834;9.132;2023-09-19T02:50:26;97907.84;;;18.45;80.15
15694;BME280;7947;48.834;9.132;2023-09-19T02:53:29;97901.13;;;18.43;80.16
15694;BME280;7947;48.834;9.132;2023-09-19T02:56:33;97906.72;;;18.46;80.16
15694;BME280;7947;48.834;9.132;2023-09-19T02:59:37;97908.88;;;18.53;80.03
15694;BME280;7947;48.834;9.132;2023-09-19T03:02:40;97907.09;;;18.57;80.23
15694;BME280;7947;48.834;9.132;2023-09-19T03:05:44;97911.88;;;18.60;80.04
15694;BME280;7947;48.834;9.132;2023-09-19T03:08:49;97919.38;;;18.63;79.82
15694;BME280;7947;48.834;9.132;2023-09-19T03:11:53;97912.34;;;18.62;79.79
15694;BME280;7947;48.834;9.132;2023-09-19T03:14:56;97914.06;;;18.66;79.76
15694;BME280;7947;48.834;9.132;2023-09-19T03:17:58;97922.06;;;18.63;79.84
15694;BME280;7947;48.834;9.132;2023-09-19T03:21:03;97917.56;;;18.67;79.57
15694;BME280;7947;48.834;9.132;2023-09-19T03:24:06;97925.03;;;18.70;79.57
15694;BME280;7947;48.834;9.132;2023-09-19T03:27:09;97925.03;;;18.70;79.53
15694;BME280;7947;48.834;9.132;2023-09-19T03:30:12;97926.19;;;18.69;79.87
15694;BME280;7947;48.834;9.132;2023-09-19T03:33:15;97925.25;;;18.65;80.25
15694;BME280;7947;48.834;9.132;2023-09-19T03:36:20;97930.34;;;18.66;80.56
15694;BME280;7947;48.834;9.132;2023-09-19T03:39:22;97932.31;;;18.66;80.79
15694;BME280;7947;48.834;9.132;2023-09-19T03:42:25;97932.31;;;18.66;80.65
15694;BME280;7947;48.834;9.132;2023-09-19T03:45:28;97925.72;;;18.67;80.76
15694;BME280;7947;48.834;9.132;2023-09-19T03:48:31;97924.91;;;18.66;80.74
15694;BME280;7947;48.834;9.132;2023-09-19T03:51:36;97924.78;;;18.63;81.32
15694;BME280;7947;48.834;9.132;2023-09-19T03:54:41;97925.94;;;18.62;81.65
15694;BME280;7947;48.834;9.132;2023-09-19T03:57:48;97930.09;;;18.59;81.97
15694;BME280;7947;48.834;9.132;2023-09-19T04:00:54;97924.19;;;18.57;81.96
15694;BME280;7947;48.834;9.132;2023-09-19T04:03:57;97929.97;;;18.56;83.10
15694;BME280;7947;48.834;9.132;2023-09-19T04:07:02;97932.28;;;18.45;84.39
15694;BME280;7947;48.834;9.132;2023-09-19T04:10:05;97927.34;;;18.39;86.34
15694;BME280;7947;48.834;9.132;2023-09-19T04:13:10;97920.81;;;18.31;87.98
15694;BME280;7947;48.834;9.132;2023-09-19T04:16:13;97917.38;;;18.22;89.00
15694;BME280;7947;48.834;9.132;2023-09-19T04:19:16;97922.00;;;18.22;89.32
15694;BME280;7947;48.834;9.132;2023-09-19T04:22:20;97927.19;;;18.15;90.43
15694;BME280;7947;48.834;9.132;2023-09-19T04:25:23;97926.56;;;18.09;91.58
15694;BME280;7947;48.834;9.132;2023-09-19T04:28:29;97934.72;;;18.09;91.63
15694;BME280;7947;48.834;9.132;2023-09-19T04:31:32;97938.41;;;18.04;92.06
15694;BME280;7947;48.834;9.132;2023-09-19T04:34:35;97939.06;;;18.01;92.74
15694;BME280;7947;48.834;9.132;2023-09-19T04:37:41;97938.72;;;18.03;92.29
15694;BME280;7947;48.834;9.132;2023-09-19T04:40:44;97940.97;;;18.01;93.08
15694;BME280;7947;48.834;9.132;2023-09-19T04:43:47;97940.03;;;17.97;93.57
15694;BME280;7947;48.834;9.132;2023-09-19T04:46:51;97940.38;;;17.95;93.69
15694;BME280;7947;48.834;9.132;2023-09-19T04:49:54;97945.31;;;17.93;94.27
15694;BME280;7947;48.834;9.132;2023-09-19T04:52:59;97955.03;;;17.94;93.95
15694;BME280;7947;48.834;9.132;2023-09-19T04:56:02;97964.78;;;17.95;94.20
15694;BME280;7947;48.834;9.132;2023-09-19T04:59:08;97964.97;;;17.90;94.41
15694;BME280;7947;48.834;9.132;2023-09-19T05:02:12;97981.22;;;17.90;94.33
15694;BME280;7947;48.834;9.132;2023-09-19T05:05:15;97986.84;;;17.94;94.71
15694;BME280;7947;48.834;9.132;2023-09-19T05:08:20;97972.47;;;17.93;95.32
15694;BME280;7947;48.834;9.132;2023-09-19T05:11:24;97975.19;;;17.93;95.63
15694;BME280;7947;48.834;9.132;2023-09-19T05:14:27;97977.41;;;17.91;96.09
15694;BME280;7947;48.834;9.132;2023-09-19T05:17:30;97987.59;;;17.94;96.26
15694;BME280;7947;48.834;9.132;2023-09-19T05:20:34;97982.50;;;17.93;96.35
15694;BME280;7947;48.834;9.132;2023-09-19T05:23:43;97991.94;;;17.95;96.12
15694;BME280;7947;48.834;9.132;2023-09-19T05:26:46;98014.56;;;17.99;96.02
15694;BME280;7947;48.834;9.132;2023-09-19T05:29:49;98022.53;;;18.04;94.22
15694;BME280;7947;48.834;9.132;2023-09-19T05:32:54;98018.25;;;18.03;92.23
15694;BME280;7947;48.834;9.132;2023-09-19T05:35:57;98016.22;;;17.92;91.96
15694;BME280;7947;48.834;9.132;2023-09-19T05:39:02;98021.50;;;17.80;92.71
15694;BME280;7947;48.834;9.132;2023-09-19T05:42:06;98026.13;;;17.79;92.87
15694;BME280;7947;48.834;9.132;2023-09-19T05:45:10;98024.06;;;17.76;92.52
15694;BME280;7947;48.834;9.132;2023-09-19T05:48:14;98038.75;;;17.75;92.46
15694;BME280;7947;48.834;9.132;2023-09-19T05:51:18;98042.44;;;17.71;91.30
15694;BME280;7947;48.834;9.132;2023-09-19T05:54:25;98045.78;;;17.68;91.10
15694;BME280;7947;48.834;9.132;2023-09-19T05:57:29;98052.81;;;17.69;90.53
15694;BME280;7947;48.834;9.132;2023-09-19T06:00:32;98071.00;;;17.60;90.60
15694;BME280;7947;48.834;9.132;2023-09-19T06:03:37;98073.06;;;17.54;89.77
15694;BME280;7947;48.834;9.132;2023-09-19T06:06:40;98065.59;;;17.51;89.63
15694;BME280;7947;48.834;9.132;2023-09-19T06:09:45;98071.50;;;17.36;90.00
15694;BME280;7947;48.834;9.132;2023-09-19T06:12:49;98073.06;;;17.37;89.76
15694;BME280;7947;48.834;9.132;2023-09-19T06:15:51;98070.19;;;17.25;90.67
15694;BME280;7947;48.834;9.132;2023-09-19T06:18:55;98064.94;;;17.20;91.86
15694;BME280;7947;48.834;9.132;2023-09-19T06:21:58;98065.41;;;17.22;91.38
15694;BME280;7947;48.834;9.132;2023-09-19T06:25:03;98076.75;;;17.24;91.57
15694;BME280;7947;48.834;9.132;2023-09-19T06:28:09;98075.63;;;17.25;92.15
15694;BME280;7947;48.834;9.132;2023-09-19T06:31:14;98072.25;;;17.37;92.15
15694;BME280;7947;48.834;9.132;2023-09-19T06:34:16;98070.03;;;17.39;91.29
15694;BME280;7947;48.834;9.132;2023-09-19T06:37:20;98070.19;;;17.42;91.98
15694;BME280;7947;48.834;9.132;2023-09-19T06:40:25;98073.06;;;17.46;92.17
15694;BME280;7947;48.834;9.132;2023-09-19T06:43:30;98079.63;;;17.53;91.87
15694;BME280;7947;48.834;9.132;2023-09-19T06:46:34;98083.94;;;17.54;91.36
15694;BME280;7947;48.834;9.132;2023-09-19T06:49:41;98079.13;;;17.60;91.18
15694;BME280;7947;48.834;9.132;2023-09-19T06:52:45;98089.66;;;17.70;90.23
15694;BME280;7947;48.834;9.132;2023-09-19T06:55:53;98087.25;;;17.77;89.45
15694;BME280;7947;48.834;9.132;2023-09-19T06:58:56;98082.91;;;17.93;89.63
15694;BME280;7947;48.834;9.132;2023-09-19T07:01:59;98102.94;;;18.18;89.22
15694;BME280;7947;48.834;9.132;2023-09-19T07:05:02;98102.56;;;18.45;87.25
15694;BME280;7947;48.834;9.132;2023-09-19T07:08:07;98102.09;;;18.72;86.06
15694;BME280;7947;48.834;9.132;2023-09-19T07:11:12;98109.56;;;18.83;84.90
15694;BME280;7947;48.834;9.132;2023-09-19T07:14:15;98108.59;;;18.79;85.02
15694;BME280;7947;48.834;9.132;2023-09-19T07:17:18;98122.72;;;18.73;84.87
15694;BME280;7947;48.834;9.132;2023-09-19T07:20:22;98122.00;;;18.64;84.77
15694;BME280;7947;48.834;9.132;2023-09-19T07:23:27;98124.06;;;18.58;85.62
15694;BME280;7947;48.834;9.132;2023-09-19T07:26:32;98125.53;;;18.56;86.00
15694;BME280;7947;48.834;9.132;2023-09-19T07:29:35;98129.34;;;18.55;87.58
15694;BME280;7947;48.834;9.132;2023-09-19T07:32:39;98126.97;;;18.53;85.83
15694;BME280;7947;48.834;9.132;2023-09-19T07:35:45;98129.81;;;18.57;86.24
15694;BME280;7947;48.834;9.132;2023-09-19T07:38:48;98136.06;;;18.57;86.96
15694;BME280;7947;48.834;9.132;2023-09-19T07:41:53;98144.22;;;18.57;86.25
15694;BME280;7947;48.834;9.132;2023-09-19T07:44:55;98137.94;;;18.65;84.65
15694;BME280;7947;48.834;9.132;2023-09-19T07:47:59;98140.00;;;18.68;83.73
15694;BME280;7947;48.834;9.132;2023-09-19T07:51:03;98140.66;;;18.65;84.14
15694;BME280;7947;48.834;9.132;2023-09-19T07:54:07;98139.84;;;18.73;82.42
15694;BME280;7947;48.834;9.132;2023-09-19T07:57:13;98152.63;;;18.64;83.05
15694;BME280;7947;48.834;9.132;2023-09-19T08:00:16;98150.72;;;18.65;83.76
15694;BME280;7947;48.834;9.132;2023-09-19T08:03:19;98158.88;;;18.65;83.48
15694;BME280;7947;48.834;9.132;2023-09-19T08:06:22;98155.97;;;18.70;83.82
15694;BME280;7947;48.834;9.132;2023-09-19T08:09:25;98159.78;;;18.77;83.24
15694;BME280;7947;48.834;9.132;2023-09-19T08:12:30;98158.63;;;18.87;84.40
15694;BME280;7947;48.834;9.132;2023-09-19T08:15:34;98160.19;;;18.97;84.25
15694;BME280;7947;48.834;9.132;2023-09-19T08:18:40;98160.25;;;19.09;82.89
15694;BME280;7947;48.834;9.132;2023-09-19T08:21:42;98170.41;;;19.20;81.23
15694;BME280;7947;48.834;9.132;2023-09-19T08:24:48;98167.81;;;19.32;79.49
15694;BME280;7947;48.834;9.132;2023-09-19T08:27:52;98166.97;;;19.40;79.41
15694;BME280;7947;48.834;9.132;2023-09-19T08:30:55;98168.31;;;19.55;79.16
15694;BME280;7947;48.834;9.132;2023-09-19T08:33:59;98169.16;;;19.67;78.48
15694;BME280;7947;48.834;9.132;2023-09-19T08:37:02;98164.63;;;19.71;77.32
15694;BME280;7947;48.834;9.132;2023-09-19T08:40:06;98175.03;;;19.90;75.64
15694;BME280;7947;48.834;9.132;2023-09-19T08:43:12;98169.59;;;19.90;74.50
15694;BME280;7947;48.834;9.132;2023-09-19T08:46:15;98182.75;;;19.88;75.15
15694;BME280;7947;48.834;9.132;2023-09-19T08:49:24;98177.63;;;19.87;72.76
15694;BME280;7947;48.834;9.132;2023-09-19T08:52:38;98186.00;;;19.82;72.60
15694;BME280;7947;48.834;9.132;2023-09-19T08:55:43;98193.44;;;19.93;70.47
15694;BME280;7947;48.834;9.132;2023-09-19T08:58:51;98185.19;;;20.02;68.44
15694;BME280;7947;48.834;9.132;2023-09-19T09:01:56;98194.97;;;20.03;69.21
15694;BME280;7947;48.834;9.132;2023-09-19T09:05:01;98187.22;;;20.25;67.54
15694;BME280;7947;48.834;9.132;2023-09-19T09:08:07;98188.84;;;20.38;66.76
15694;BME280;7947;48.834;9.132;2023-09-19T09:11:11;98184.66;;;20.41;65.63
15694;BME280;7947;48.834;9.132;2023-09-19T09:14:18;98189.22;;;20.49;67.08
15694;BME280;7947;48.834;9.132;2023-09-19T09:17:21;98183.81;;;20.61;66.73
15694;BME280;7947;48.834;9.132;2023-09-19T09:20:24;98189.72;;;20.63;64.99
15694;BME280;7947;48.834;9.132;2023-09-19T09:23:27;98189.47;;;20.56;63.47
15694;BME280;7947;48.834;9.132;2023-09-19T09:26:41;98194.91;;;20.44;62.79
15694;BME280;7947;48.834;9.132;2023-09-19T09:29:49;98190.34;;;20.48;63.27
15694;BME280;7947;48.834;9.132;2023-09-19T09:33:07;98187.63;;;20.48;61.21
15694;BME280;7947;48.834;9.132;2023-09-19T09:36:14;98185.28;;;20.58;60.47
15694;BME280;7947;48.834;9.132;2023-09-19T09:39:30;98186.78;;;20.92;58.20
15694;BME280;7947;48.834;9.132;2023-09-19T09:42:35;98195.19;;;20.99;58.12
15694;BME280;7947;48.834;9.132;2023-09-19T09:45:41;98193.03;;;20.93;57.65
15694;BME280;7947;48.834;9.132;2023-09-19T09:48:56;98190.78;;;20.83;57.79
15694;BME280;7947;48.834;9.132;2023-09-19T09:52:16;98191.31;;;21.00;58.54
15694;BME280;7947;48.834;9.132;2023-09-19T09:55:19;98186.00;;;21.16;56.49
15694;BME280;7947;48.834;9.132;2023-09-19T09:58:22;98195.44;;;21.06;57.60
15694;BME280;7947;48.834;9.132;2023-09-19T10:01:49;98197.84;;;21.08;57.83
15694;BME280;7947;48.834;9.132;2023-09-19T10:04:56;98187.41;;;21.10;59.02
15694;BME280;7947;48.834;9.132;2023-09-19T10:08:11;98192.72;;;21.06;56.50
15694;BME280;7947;48.834;9.132;2023-09-19T10:11:20;98189.06;;;21.02;55.92
15694;BME280;7947;48.834;9.132;2023-09-19T10:14:35;98185.91;;;21.12;56.27
15694;BME280;7947;48.834;9.132;2023-09-19T10:17:42;98181.09;;;21.45;56.06
15694;BME280;7947;48.834;9.132;2023-09-19T10:20:46;98174.91;;;21.61;55.72
15694;BME280;7947;48.834;9.132;2023-09-19T10:23:51;98168.41;;;22.05;55.11
15694;BME280;7947;48.834;9.132;2023-09-19T10:26:59;98166.16;;;22.22;54.01
15694;BME280;7947;48.834;9.132;2023-09-19T10:30:06;98161.97;;;22.40;54.08
15694;BME280;7947;48.834;9.132;2023-09-19T10:33:13;98162.34;;;22.55;53.16
15694;BME280;7947;48.834;9.132;2023-09-19T10:36:17;98158.84;;;22.85;51.62
15694;BME280;7947;48.834;9.132;2023-09-19T10:39:20;98159.88;;;23.12;50.32
15694;BME280;7947;48.834;9.132;2023-09-19T10:42:25;98165.63;;;23.38;50.71
15694;BME280;7947;48.834;9.132;2023-09-19T10:45:31;98170.50;;;23.48;48.64
15694;BME280;7947;48.834;9.132;2023-09-19T10:48:36;98160.81;;;23.70;49.44
15694;BME280;7947;48.834;9.132;2023-09-19T10:51:42;98162.25;;;23.83;47.79
15694;BME280;7947;48.834;9.132;2023-09-19T10:54:48;98168.75;;;23.94;46.73
15694;BME280;7947;48.834;9.132;2023-09-19T10:57:53;98169.53;;;23.94;44.96
15694;BME280;7947;48.834;9.132;2023-09-19T11:01:12;98164.81;;;24.10;44.81
15694;BME280;7947;48.834;9.132;2023-09-19T11:04:25;98162.84;;;24.30;43.72
15694;BME280;7947;48.834;9.132;2023-09-19T11:07:29;98169.25;;;23.99;44.44
15694;BME280;7947;48.834;9.132;2023-09-19T11:10:46;98172.38;;;23.79;45.83
15694;BME280;7947;48.834;9.132;2023-09-19T11:14:28;98157.94;;;23.82;45.73
15694;BME280;7947;48.834;9.132;2023-09-19T11:17:32;98154.78;;;23.80;46.05
15694;BME280;7947;48.834;9.132;2023-09-19T11:20:37;98159.00;;;23.96;44.03
15694;BME280;7947;48.834;9.132;2023-09-19T11:27:26;98145.38;;;24.61;44.20
15694;BME280;7947;48.834;9.132;2023-09-19T11:30:30;98141.38;;;24.77;43.57
15694;BME280;7947;48.834;9.132;2023-09-19T11:33:34;98130.00;;;25.01;43.94
15694;BME280;7947;48.834;9.132;2023-09-19T11:36:41;98140.44;;;25.19;41.93
15694;BME280;7947;48.834;9.132;2023-09-19T11:40:06;98131.44;;;25.44;43.59
15694;BME280;7947;48.834;9.132;2023-09-19T11:43:30;98134.66;;;25.50;43.48
15694;BME280;7947;48.834;9.132;2023-09-19T11:46:53;98139.00;;;25.28;39.63
15694;BME280;7947;48.834;9.132;2023-09-19T11:49:56;98124.97;;;25.07;40.90
15694;BME280;7947;48.834;9.132;2023-09-19T11:53:02;98122.19;;;24.77;42.82
15694;BME280;7947;48.834;9.132;2023-09-19T11:56:10;98137.41;;;24.52;44.03
15694;BME280;7947;48.834;9.132;2023-09-19T11:59:19;98124.22;;;24.39;45.43
15694;BME280;7947;48.834;9.132;2023-09-19T12:02:34;98127.63;;;24.32;43.44
15694;BME280;7947;48.834;9.132;2023-09-19T12:05:41;98120.84;;;24.26;42.51
15694;BME280;7947;48.834;9.132;2023-09-19T12:08:46;98110.81;;;24.34;42.97
15694;BME280;7947;48.834;9.132;2023-09-19T12:11:50;98114.16;;;24.69;44.74
15694;BME280;7947;48.834;9.132;2023-09-19T12:14:53;98114.97;;;24.69;44.53
15694;BME280;7947;48.834;9.132;2023-09-19T12:17:56;98118.06;;;24.45;46.00
15694;BME280;7947;48.834;9.132;2023-09-19T12:21:01;98116.28;;;24.11;44.27
15694;BME280;7947;48.834;9.132;2023-09-19T12:24:12;98121.09;;;23.79;44.55
15694;BME280;7947;48.834;9.132;2023-09-19T12:27:16;98109.94;;;23.50;45.50
15694;BME280;7947;48.834;9.132;2023-09-19T12:30:19;98101.78;;;23.34;45.55
15694;BME280;7947;48.834;9.132;2023-09-19T12:33:28;98105.56;;;23.29;45.28
15694;BME280;7947;48.834;9.132;2023-09-19T12:36:31;98092.25;;;23.28;45.96
15694;BME280;7947;48.834;9.132;2023-09-19T12:39:38;98094.34;;;23.35;45.15
15694;BME280;7947;48.834;9.132;2023-09-19T12:42:43;98083.31;;;23.31;46.13
15694;BME280;7947;48.834;9.132;2023-09-19T12:45:46;98083.06;;;23.36;45.42
15694;BME280;7947;48.834;9.132;2023-09-19T12:52:09;98078.72;;;23.92;46.03
15694;BME280;7947;48.834;9.132;2023-09-19T12:55:21;98082.47;;;24.26;44.11
15694;BME280;7947;48.834;9.132;2023-09-19T12:58:25;98080.78;;;24.18;43.39
15694;BME280;7947;48.834;9.132;2023-09-19T13:01:29;98077.06;;;24.30;43.43
15694;BME280;7947;48.834;9.132;2023-09-19T13:04:32;98071.25;;;24.57;42.89
15694;BME280;7947;48.834;9.132;2023-09-19T13:07:40;98068.47;;;24.76;42.83
15694;BME280;7947;48.834;9.132;2023-09-19T13:11:05;98068.78;;;24.97;42.51
15694;BME280;7947;48.834;9.132;2023-09-19T13:14:20;98061.91;;;25.11;42.57
15694;BME280;7947;48.834;9.132;2023-09-19T13:17:24;98067.03;;;25.12;41.87
15694;BME280;7947;48.834;9.132;2023-09-19T13:20:27;98067.28;;;25.03;42.87
15694;BME280;7947;48.834;9.132;2023-09-19T13:23:30;98074.06;;;25.10;41.52
15694;BME280;7947;48.834;9.132;2023-09-19T13:26:35;98068.91;;;25.04;40.63
15694;BME280;7947;48.834;9.132;2023-09-19T13:29:38;98072.28;;;24.94;41.60
15694;BME280;7947;48.834;9.132;2023-09-19T13:32:41;98071.72;;;24.85;41.78
15694;BME280;7947;48.834;9.132;2023-09-19T13:35:45;98066.09;;;24.75;40.96
15694;BME280;7947;48.834;9.132;2023-09-19T13:38:49;98058.16;;;24.70;42.03
15694;BME280;7947;48.834;9.132;2023-09-19T13:41:56;98053.53;;;24.74;42.03
15694;BME280;7947;48.834;9.132;2023-09-19T13:44:59;98061.41;;;24.75;41.42
15694;BME280;7947;48.834;9.132;2023-09-19T13:48:02;98070.22;;;24.65;42.10
15694;BME280;7947;48.834;9.132;2023-09-19T13:51:05;98057.66;;;24.64;42.64
15694;BME280;7947;48.834;9.132;2023-09-19T13:54:08;98051.13;;;24.46;42.32
15694;BME280;7947;48.834;9.132;2023-09-19T13:57:13;98050.81;;;24.29;42.68
15694;BME280;7947;48.834;9.132;2023-09-19T14:00:16;98046.00;;;24.22;43.20
15694;BME280;7947;48.834;9.132;2023-09-19T14:03:19;98043.31;;;24.26;42.28
15694;BME280;7947;48.834;9.132;2023-09-19T14:06:23;98042.06;;;24.20;42.23
15694;BME280;7947;48.834;9.132;2023-09-19T14:09:27;98048.56;;;24.11;43.34
15694;BME280;7947;48.834;9.132;2023-09-19T14:12:31;98035.94;;;24.07;43.05
15694;BME280;7947;48.834;9.132;2023-09-19T14:15:36;98041.50;;;24.10;42.43
15694;BME280;7947;48.834;9.132;2023-09-19T14:18:39;98041.44;;;24.07;42.68
15694;BME280;7947;48.834;9.132;2023-09-19T14:21:43;98035.94;;;24.07;42.06
15694;BME280;7947;48.834;9.132;2023-09-19T14:24:47;98028.69;;;24.18;42.95
15694;BME280;7947;48.834;9.132;2023-09-19T14:27:51;98031.22;;;24.04;43.04
15694;BME280;7947;48.834;9.132;2023-09-19T14:30:54;98031.41;;;23.95;42.15
15694;BME280;7947;48.834;9.132;2023-09-19T14:33:57;98025.44;;;23.90;42.23
15694;BME280;7947;48.834;9.132;2023-09-19T14:37:00;98024.09;;;23.80;43.03
15694;BME280;7947;48.834;9.132;2023-09-19T14:40:06;98026.03;;;23.80;42.94
15694;BME280;7947;48.834;9.132;2023-09-19T14:43:13;98023.19;;;23.95;41.96
15694;BME280;7947;48.834;9.132;2023-09-19T14:46:15;98015.34;;;23.94;42.24
15694;BME280;7947;48.834;9.132;2023-09-19T14:49:20;98013.97;;;24.03;43.07
15694;BME280;7947;48.834;9.132;2023-09-19T14:52:23;98011.91;;;24.20;42.11
15694;BME280;7947;48.834;9.132;2023-09-19T14:55:29;98012.44;;;24.29;42.36
15694;BME280;7947;48.834;9.132;2023-09-19T14:58:37;98006.53;;;24.27;41.14
15694;BME280;7947;48.834;9.132;2023-09-19T15:01:44;98018.97;;;24.21;41.38
15694;BME280;7947;48.834;9.132;2023-09-19T15:04:47;98013.44;;;24.17;42.15
15694;BME280;7947;48.834;9.132;2023-09-19T15:07:50;98017.31;;;24.16;41.28
15694;BME280;7947;48.834;9.132;2023-09-19T15:10:53;98020.38;;;24.11;41.72
15694;BME280;7947;48.834;9.132;2023-09-19T15:13:58;98012.28;;;23.99;41.43
15694;BME280;7947;48.834;9.132;2023-09-19T15:17:02;98006.84;;;23.80;41.72
15694;BME280;7947;48.834;9.132;2023-09-19T15:20:07;98014.66;;;23.78;42.79
15694;BME280;7947;48.834;9.132;2023-09-19T15:23:10;98017.44;;;23.81;40.86
15694;BME280;7947;48.834;9.132;2023-09-19T15:26:14;98016.91;;;23.72;41.17
15694;BME280;7947;48.834;9.132;2023-09-19T15:29:24;98013.34;;;23.72;41.23
15694;BME280;7947;48.834;9.132;2023-09-19T15:32:27;98007.44;;;23.70;41.39
15694;BME280;7947;48.834;9.132;2023-09-19T15:35:30;98003.00;;;23.62;41.64
15694;BME280;7947;48.834;9.132;2023-09-19T15:38:57;97999.41;;;23.58;41.63
15694;BME280;7947;48.834;9.132;2023-09-19T15:42:01;97996.84;;;23.46;42.30
15694;BME280;7947;48.834;9.132;2023-09-19T15:45:06;97995.09;;;23.38;42.25
15694;BME280;7947;48.834;9.132;2023-09-19T15:48:11;97985.06;;;23.26;42.74
15694;BME280;7947;48.834;9.132;2023-09-19T15:51:14;97992.28;;;23.15;43.58
15694;BME280;7947;48.834;9.132;2023-09-19T15:54:17;97990.81;;;23.02;43.47
15694;BME280;7947;48.834;9.132;2023-09-19T15:57:20;97985.72;;;23.00;44.04
15694;BME280;7947;48.834;9.132;2023-09-19T16:00:26;97996.06;;;22.91;43.60
15694;BME280;7947;48.834;9.132;2023-09-19T16:03:29;97987.19;;;22.79;45.11
15694;BME280;7947;48.834;9.132;2023-09-19T16:06:32;97994.53;;;22.75;44.73
15694;BME280;7947;48.834;9.132;2023-09-19T16:09:35;97993.66;;;22.71;45.16
15694;BME280;7947;48.834;9.132;2023-09-19T16:12:38;97993.31;;;22.72;45.22
15694;BME280;7947;48.834;9.132;2023-09-19T16:15:43;97989.34;;;22.70;45.60
15694;BME280;7947;48.834;9.132;2023-09-19T16:18:46;97980.69;;;22.68;44.74
15694;BME280;7947;48.834;9.132;2023-09-19T16:21:49;97989.19;;;22.63;45.20
15694;BME280;7947;48.834;9.132;2023-09-19T16:24:52;97984.06;;;22.61;45.60
15694;BME280;7947;48.834;9.132;2023-09-19T16:27:55;97978.16;;;22.59;46.18
15694;BME280;7947;48.834;9.132;2023-09-19T16:30:59;97986.19;;;22.52;47.00
15694;BME280;7947;48.834;9.132;2023-09-19T16:34:03;97978.34;;;22.51;46.77
15694;BME280;7947;48.834;9.132;2023-09-19T16:37:06;97980.56;;;22.45;47.45
15694;BME280;7947;48.834;9.132;2023-09-19T16:40:09;97974.91;;;22.38;47.36
15694;BME280;7947;48.834;9.132;2023-09-19T16:43:14;97979.84;;;22.32;48.14